This is the latest recevied weather packets stored in our database for station/object FW7644. If no packets are shown the sender has not sent any weather packets the latest 10 day(s).
| Time | Temp. | Humidity | Pressure | Rain* | Wind** | Luminosity | Snow |
|---|---|---|---|---|---|---|---|
| 1778093324 | 28.89° C | 51% | 1021 hPa | 0 mm | - | - | - |
| 1778093023 | 31.11° C | 46% | 1021 hPa | 0 mm | - | - | - |
| 1778092721 | 31.67° C | 45% | 1020.9 hPa | 0 mm | - | - | - |
| 1778092419 | 30.56° C | 48% | 1020.9 hPa | 0 mm | - | - | - |
| 1778092117 | 30° C | 51% | 1021 hPa | 0 mm | - | - | - |
| 1778091816 | 27.78° C | 58% | 1021 hPa | 0 mm | - | - | - |
| 1778091514 | 27.78° C | 56% | 1021.1 hPa | 0 mm | - | - | - |
| 1778091212 | 28.33° C | 51% | 1021.1 hPa | 0 mm | - | - | - |
| 1778090911 | 28.33° C | 51% | 1021.2 hPa | 0 mm | - | - | - |
| 1778090609 | 26.67° C | 54% | 1021.3 hPa | 0 mm | - | - | - |
| 1778090307 | 26.67° C | 54% | 1021.3 hPa | 0 mm | - | - | - |
| 1778090005 | 26.67° C | 54% | 1021.2 hPa | 0 mm | - | - | - |
| 1778089704 | 26.67° C | 54% | 1021.2 hPa | 0 mm | - | - | - |
| 1778089402 | 26.67° C | 52% | 1021.3 hPa | 0 mm | - | - | - |
| 1778089100 | 27.22° C | 51% | 1021.4 hPa | 0 mm | - | - | - |
| 1778088798 | 28.33° C | 48% | 1021.5 hPa | 0 mm | - | - | - |
| 1778088497 | 28.33° C | 48% | 1021.5 hPa | 0 mm | - | - | - |
| 1778088195 | 28.89° C | 48% | 1021.5 hPa | 0 mm | - | - | - |
| 1778087893 | 30.56° C | 43% | 1021.5 hPa | 0 mm | - | - | - |
| 1778087591 | 31.11° C | 42% | 1021.5 hPa | 0 mm | - | - | - |
| 1778087289 | 29.44° C | 47% | 1021.6 hPa | 0 mm | - | - | - |
| 1778086987 | 27.78° C | 50% | 1021.7 hPa | 0 mm | - | - | - |
| 1778086685 | 28.89° C | 47% | 1021.8 hPa | 0 mm | - | - | - |
| 1778086384 | 30° C | 45% | 1021.9 hPa | 0 mm | - | - | - |
| 1778086082 | 30.56° C | 43% | 1021.9 hPa | 0 mm | - | - | - |
* Rain latest hour (hover to see other rain measurements)
** Current wind speed in m/s (hover to see current wind gust speed)